sensor_id;sensor_type;location;lat;lon;timestamp;temperature;humidity
41939;DHT22;23057;48.554;14.454;2022-08-19T00:01:45;16.40;99.90
41939;DHT22;23057;48.554;14.454;2022-08-19T00:04:24;16.50;97.70
41939;DHT22;23057;48.554;14.454;2022-08-19T00:07:00;16.60;12.90
41939;DHT22;23057;48.554;14.454;2022-08-19T00:09:31;16.70;1.00
41939;DHT22;23057;48.554;14.454;2022-08-19T00:12:02;16.70;1.00
41939;DHT22;23057;48.554;14.454;2022-08-19T00:14:34;16.70;1.00
41939;DHT22;23057;48.554;14.454;2022-08-19T00:17:05;16.60;1.00
41939;DHT22;23057;48.554;14.454;2022-08-19T00:19:37;16.60;4.00
41939;DHT22;23057;48.554;14.454;2022-08-19T00:22:09;16.60;46.60
41939;DHT22;23057;48.554;14.454;2022-08-19T00:24:40;16.50;1.00
41939;DHT22;23057;48.554;14.454;2022-08-19T00:27:11;15.80;99.90
41939;DHT22;23057;48.554;14.454;2022-08-19T00:29:42;15.50;99.90
41939;DHT22;23057;48.554;14.454;2022-08-19T00:32:13;15.60;47.80
41939;DHT22;23057;48.554;14.454;2022-08-19T00:34:44;16.00;99.90
41939;DHT22;23057;48.554;14.454;2022-08-19T00:37:15;16.30;1.00
41939;DHT22;23057;48.554;14.454;2022-08-19T00:39:45;16.50;99.90
41939;DHT22;23057;48.554;14.454;2022-08-19T00:42:17;16.60;99.90
41939;DHT22;23057;48.554;14.454;2022-08-19T00:44:50;16.60;91.30
41939;DHT22;23057;48.554;14.454;2022-08-19T00:47:21;16.70;5.30
41939;DHT22;23057;48.554;14.454;2022-08-19T00:49:53;16.70;1.00
41939;DHT22;23057;48.554;14.454;2022-08-19T00:52:39;16.70;1.00
41939;DHT22;23057;48.554;14.454;2022-08-19T00:55:17;16.80;1.00
41939;DHT22;23057;48.554;14.454;2022-08-19T00:57:56;16.80;1.00
41939;DHT22;23057;48.554;14.454;2022-08-19T01:00:35;16.70;1.00
41939;DHT22;23057;48.554;14.454;2022-08-19T01:03:09;16.70;1.00
41939;DHT22;23057;48.554;14.454;2022-08-19T01:05:44;16.70;1.00
41939;DHT22;23057;48.554;14.454;2022-08-19T01:08:17;16.70;1.00
41939;DHT22;23057;48.554;14.454;2022-08-19T01:10:53;16.70;1.00
41939;DHT22;23057;48.554;14.454;2022-08-19T01:13:29;16.70;1.00
41939;DHT22;23057;48.554;14.454;2022-08-19T01:16:05;16.70;1.00
41939;DHT22;23057;48.554;14.454;2022-08-19T01:18:42;16.60;1.00
41939;DHT22;23057;48.554;14.454;2022-08-19T01:21:16;16.50;31.30
41939;DHT22;23057;48.554;14.454;2022-08-19T01:23:55;16.30;14.70
41939;DHT22;23057;48.554;14.454;2022-08-19T01:26:26;16.20;99.90
41939;DHT22;23057;48.554;14.454;2022-08-19T01:28:58;16.30;99.90
41939;DHT22;23057;48.554;14.454;2022-08-19T01:31:31;16.30;99.90
41939;DHT22;23057;48.554;14.454;2022-08-19T01:34:02;16.30;99.90
41939;DHT22;23057;48.554;14.454;2022-08-19T01:36:35;16.30;99.90
41939;DHT22;23057;48.554;14.454;2022-08-19T01:39:20;16.30;99.90
41939;DHT22;23057;48.554;14.454;2022-08-19T01:41:54;16.20;99.90
41939;DHT22;23057;48.554;14.454;2022-08-19T01:44:25;16.10;99.90
41939;DHT22;23057;48.554;14.454;2022-08-19T01:46:56;16.10;99.90
41939;DHT22;23057;48.554;14.454;2022-08-19T01:49:27;15.90;1.00
41939;DHT22;23057;48.554;14.454;2022-08-19T01:51:59;15.60;99.90
41939;DHT22;23057;48.554;14.454;2022-08-19T01:54:32;15.20;1.00
41939;DHT22;23057;48.554;14.454;2022-08-19T01:57:05;15.30;99.90
41939;DHT22;23057;48.554;14.454;2022-08-19T01:59:42;15.40;99.90
41939;DHT22;23057;48.554;14.454;2022-08-19T02:02:15;15.50;99.90
41939;DHT22;23057;48.554;14.454;2022-08-19T02:04:46;15.60;99.90
41939;DHT22;23057;48.554;14.454;2022-08-19T02:07:20;15.60;99.90
41939;DHT22;23057;48.554;14.454;2022-08-19T02:09:51;15.60;99.90
41939;DHT22;23057;48.554;14.454;2022-08-19T02:12:22;15.60;99.90
41939;DHT22;23057;48.554;14.454;2022-08-19T02:14:53;15.50;99.90
41939;DHT22;23057;48.554;14.454;2022-08-19T02:17:24;15.40;99.90
41939;DHT22;23057;48.554;14.454;2022-08-19T02:19:55;15.30;99.90
41939;DHT22;23057;48.554;14.454;2022-08-19T02:22:26;15.30;99.90
41939;DHT22;23057;48.554;14.454;2022-08-19T02:24:57;15.40;99.90
41939;DHT22;23057;48.554;14.454;2022-08-19T02:27:28;15.40;99.90
41939;DHT22;23057;48.554;14.454;2022-08-19T02:29:59;15.40;99.90
41939;DHT22;23057;48.554;14.454;2022-08-19T02:32:31;15.40;99.90
41939;DHT22;23057;48.554;14.454;2022-08-19T02:35:02;15.50;99.90
41939;DHT22;23057;48.554;14.454;2022-08-19T02:37:34;15.40;99.90
41939;DHT22;23057;48.554;14.454;2022-08-19T02:40:24;15.50;99.90
41939;DHT22;23057;48.554;14.454;2022-08-19T02:42:55;15.50;99.90
41939;DHT22;23057;48.554;14.454;2022-08-19T02:45:26;15.60;99.90
41939;DHT22;23057;48.554;14.454;2022-08-19T02:47:57;15.60;99.90
41939;DHT22;23057;48.554;14.454;2022-08-19T02:50:28;15.60;99.90
41939;DHT22;23057;48.554;14.454;2022-08-19T02:52:59;15.10;99.90
41939;DHT22;23057;48.554;14.454;2022-08-19T02:55:30;14.80;99.90
41939;DHT22;23057;48.554;14.454;2022-08-19T02:58:01;14.80;99.90
41939;DHT22;23057;48.554;14.454;2022-08-19T03:00:32;15.00;99.90
41939;DHT22;23057;48.554;14.454;2022-08-19T03:03:02;15.10;99.90
41939;DHT22;23057;48.554;14.454;2022-08-19T03:05:33;15.20;99.90
41939;DHT22;23057;48.554;14.454;2022-08-19T03:08:04;15.20;99.90
41939;DHT22;23057;48.554;14.454;2022-08-19T03:10:39;15.20;99.90
41939;DHT22;23057;48.554;14.454;2022-08-19T03:13:17;15.20;99.90
41939;DHT22;23057;48.554;14.454;2022-08-19T03:15:48;15.20;99.90
41939;DHT22;23057;48.554;14.454;2022-08-19T03:18:19;15.30;99.90
41939;DHT22;23057;48.554;14.454;2022-08-19T03:20:51;15.30;99.90
41939;DHT22;23057;48.554;14.454;2022-08-19T03:23:24;15.40;99.90
41939;DHT22;23057;48.554;14.454;2022-08-19T03:25:55;15.50;99.90
41939;DHT22;23057;48.554;14.454;2022-08-19T03:28:26;15.50;99.90
41939;DHT22;23057;48.554;14.454;2022-08-19T03:30:59;15.50;99.90
41939;DHT22;23057;48.554;14.454;2022-08-19T03:33:45;15.50;99.90
41939;DHT22;23057;48.554;14.454;2022-08-19T03:36:21;15.50;99.90
41939;DHT22;23057;48.554;14.454;2022-08-19T03:38:57;15.50;99.90
41939;DHT22;23057;48.554;14.454;2022-08-19T03:41:33;15.40;99.90
41939;DHT22;23057;48.554;14.454;2022-08-19T03:44:09;15.40;99.90
41939;DHT22;23057;48.554;14.454;2022-08-19T03:46:40;15.40;99.90
41939;DHT22;23057;48.554;14.454;2022-08-19T03:49:11;15.30;99.90
41939;DHT22;23057;48.554;14.454;2022-08-19T03:51:42;15.20;99.90
41939;DHT22;23057;48.554;14.454;2022-08-19T03:54:14;15.10;99.90
41939;DHT22;23057;48.554;14.454;2022-08-19T03:56:50;15.20;99.90
41939;DHT22;23057;48.554;14.454;2022-08-19T03:59:26;15.30;99.90
41939;DHT22;23057;48.554;14.454;2022-08-19T04:02:07;15.40;99.90
41939;DHT22;23057;48.554;14.454;2022-08-19T04:04:42;15.40;99.90
41939;DHT22;23057;48.554;14.454;2022-08-19T04:07:14;15.40;99.90
41939;DHT22;23057;48.554;14.454;2022-08-19T04:09:46;15.40;99.90
41939;DHT22;23057;48.554;14.454;2022-08-19T04:12:17;15.50;99.90
41939;DHT22;23057;48.554;14.454;2022-08-19T04:14:50;15.60;99.90
41939;DHT22;23057;48.554;14.454;2022-08-19T04:17:21;15.60;99.90
41939;DHT22;23057;48.554;14.454;2022-08-19T04:19:52;15.70;99.90
41939;DHT22;23057;48.554;14.454;2022-08-19T04:22:23;15.70;99.90
41939;DHT22;23057;48.554;14.454;2022-08-19T04:24:53;15.80;99.90
41939;DHT22;23057;48.554;14.454;2022-08-19T04:27:24;15.90;99.90
41939;DHT22;23057;48.554;14.454;2022-08-19T04:29:55;16.00;99.90
41939;DHT22;23057;48.554;14.454;2022-08-19T04:32:26;16.10;99.90
41939;DHT22;23057;48.554;14.454;2022-08-19T04:34:57;16.30;99.90
41939;DHT22;23057;48.554;14.454;2022-08-19T04:37:28;16.40;99.90
41939;DHT22;23057;48.554;14.454;2022-08-19T04:40:04;16.40;99.90
41939;DHT22;23057;48.554;14.454;2022-08-19T04:42:55;16.30;99.90
41939;DHT22;23057;48.554;14.454;2022-08-19T04:45:26;16.20;99.90
41939;DHT22;23057;48.554;14.454;2022-08-19T04:47:57;16.30;99.90
41939;DHT22;23057;48.554;14.454;2022-08-19T04:50:28;16.30;99.90
41939;DHT22;23057;48.554;14.454;2022-08-19T04:52:59;16.40;99.90
41939;DHT22;23057;48.554;14.454;2022-08-19T04:55:29;16.40;99.90
41939;DHT22;23057;48.554;14.454;2022-08-19T04:58:00;16.50;99.90
41939;DHT22;23057;48.554;14.454;2022-08-19T05:00:32;16.50;99.90
41939;DHT22;23057;48.554;14.454;2022-08-19T05:03:03;16.50;99.90
41939;DHT22;23057;48.554;14.454;2022-08-19T05:05:37;16.60;99.90
41939;DHT22;23057;48.554;14.454;2022-08-19T05:08:14;16.60;99.90
41939;DHT22;23057;48.554;14.454;2022-08-19T05:10:50;16.90;99.90
41939;DHT22;23057;48.554;14.454;2022-08-19T05:13:22;17.00;99.90
41939;DHT22;23057;48.554;14.454;2022-08-19T05:15:54;17.00;99.90
41939;DHT22;23057;48.554;14.454;2022-08-19T05:18:28;17.10;99.90
41939;DHT22;23057;48.554;14.454;2022-08-19T05:21:18;17.10;99.90
41939;DHT22;23057;48.554;14.454;2022-08-19T05:24:09;17.10;99.90
41939;DHT22;23057;48.554;14.454;2022-08-19T05:26:42;17.10;99.90
41939;DHT22;23057;48.554;14.454;2022-08-19T05:29:20;17.20;99.90
41939;DHT22;23057;48.554;14.454;2022-08-19T05:31:52;17.20;99.90
41939;DHT22;23057;48.554;14.454;2022-08-19T05:34:25;17.20;99.90
41939;DHT22;23057;48.554;14.454;2022-08-19T05:36:57;17.00;99.90
41939;DHT22;23057;48.554;14.454;2022-08-19T05:39:32;17.00;99.90
41939;DHT22;23057;48.554;14.454;2022-08-19T05:42:07;16.70;99.90
41939;DHT22;23057;48.554;14.454;2022-08-19T05:44:42;16.30;99.90
41939;DHT22;23057;48.554;14.454;2022-08-19T05:47:14;16.10;99.90
41939;DHT22;23057;48.554;14.454;2022-08-19T05:49:47;16.00;99.90
41939;DHT22;23057;48.554;14.454;2022-08-19T05:52:20;16.00;99.90
41939;DHT22;23057;48.554;14.454;2022-08-19T05:54:51;16.00;99.90
41939;DHT22;23057;48.554;14.454;2022-08-19T05:57:25;16.00;99.90
41939;DHT22;23057;48.554;14.454;2022-08-19T05:59:56;16.00;99.90
41939;DHT22;23057;48.554;14.454;2022-08-19T06:02:30;16.10;99.90
41939;DHT22;23057;48.554;14.454;2022-08-19T06:05:02;16.10;99.90
41939;DHT22;23057;48.554;14.454;2022-08-19T06:07:38;16.20;99.90
41939;DHT22;23057;48.554;14.454;2022-08-19T06:10:10;16.30;99.90
41939;DHT22;23057;48.554;14.454;2022-08-19T06:12:42;16.30;99.90
41939;DHT22;23057;48.554;14.454;2022-08-19T06:15:13;16.30;99.90
41939;DHT22;23057;48.554;14.454;2022-08-19T06:17:45;16.50;99.90
41939;DHT22;23057;48.554;14.454;2022-08-19T06:20:15;16.70;99.90
41939;DHT22;23057;48.554;14.454;2022-08-19T06:22:48;16.80;99.90
41939;DHT22;23057;48.554;14.454;2022-08-19T06:25:21;16.90;99.90
41939;DHT22;23057;48.554;14.454;2022-08-19T06:27:52;17.00;99.90
41939;DHT22;23057;48.554;14.454;2022-08-19T06:30:23;17.10;99.90
41939;DHT22;23057;48.554;14.454;2022-08-19T06:32:54;17.00;99.90
41939;DHT22;23057;48.554;14.454;2022-08-19T06:35:25;17.00;99.90
41939;DHT22;23057;48.554;14.454;2022-08-19T06:37:57;17.00;99.90
41939;DHT22;23057;48.554;14.454;2022-08-19T06:40:27;17.00;99.90
41939;DHT22;23057;48.554;14.454;2022-08-19T06:42:58;17.10;99.90
41939;DHT22;23057;48.554;14.454;2022-08-19T06:45:30;17.20;99.90
41939;DHT22;23057;48.554;14.454;2022-08-19T06:48:02;17.70;99.90
41939;DHT22;23057;48.554;14.454;2022-08-19T06:50:33;17.90;99.90
41939;DHT22;23057;48.554;14.454;2022-08-19T06:53:04;18.20;99.90
41939;DHT22;23057;48.554;14.454;2022-08-19T06:55:36;18.20;99.90
41939;DHT22;23057;48.554;14.454;2022-08-19T06:58:07;18.50;99.90
41939;DHT22;23057;48.554;14.454;2022-08-19T07:00:39;18.70;99.90
41939;DHT22;23057;48.554;14.454;2022-08-19T07:03:10;18.90;99.90
41939;DHT22;23057;48.554;14.454;2022-08-19T07:05:41;18.80;99.90
41939;DHT22;23057;48.554;14.454;2022-08-19T07:08:13;18.90;99.90
41939;DHT22;23057;48.554;14.454;2022-08-19T07:10:44;19.10;99.90
41939;DHT22;23057;48.554;14.454;2022-08-19T07:13:16;19.30;99.90
41939;DHT22;23057;48.554;14.454;2022-08-19T07:15:47;19.40;99.90
41939;DHT22;23057;48.554;14.454;2022-08-19T07:18:20;19.60;99.90
41939;DHT22;23057;48.554;14.454;2022-08-19T07:20:51;19.60;99.90
41939;DHT22;23057;48.554;14.454;2022-08-19T07:23:35;19.70;99.90
41939;DHT22;23057;48.554;14.454;2022-08-19T07:28:44;19.70;99.90
41939;DHT22;23057;48.554;14.454;2022-08-19T07:31:18;19.70;99.90
41939;DHT22;23057;48.554;14.454;2022-08-19T07:33:53;19.80;99.90
41939;DHT22;23057;48.554;14.454;2022-08-19T07:36:27;19.70;99.90
41939;DHT22;23057;48.554;14.454;2022-08-19T07:39:04;19.90;99.90
41939;DHT22;23057;48.554;14.454;2022-08-19T07:41:39;20.40;99.90
41939;DHT22;23057;48.554;14.454;2022-08-19T07:44:11;20.70;99.90
41939;DHT22;23057;48.554;14.454;2022-08-19T07:46:45;20.70;1.00
41939;DHT22;23057;48.554;14.454;2022-08-19T07:49:20;21.50;99.90
41939;DHT22;23057;48.554;14.454;2022-08-19T07:52:00;22.10;99.90
41939;DHT22;23057;48.554;14.454;2022-08-19T07:54:37;22.40;39.00
41939;DHT22;23057;48.554;14.454;2022-08-19T07:57:09;22.20;1.00
41939;DHT22;23057;48.554;14.454;2022-08-19T07:59:39;22.20;33.10
41939;DHT22;23057;48.554;14.454;2022-08-19T08:02:10;22.20;3.90
41939;DHT22;23057;48.554;14.454;2022-08-19T08:04:41;22.10;54.40
41939;DHT22;23057;48.554;14.454;2022-08-19T08:07:31;21.70;1.00
41939;DHT22;23057;48.554;14.454;2022-08-19T08:10:20;21.30;99.90
41939;DHT22;23057;48.554;14.454;2022-08-19T08:12:51;21.20;99.90
41939;DHT22;23057;48.554;14.454;2022-08-19T08:15:22;21.20;99.90
41939;DHT22;23057;48.554;14.454;2022-08-19T08:17:53;21.30;99.90
41939;DHT22;23057;48.554;14.454;2022-08-19T08:20:24;21.20;99.90
41939;DHT22;23057;48.554;14.454;2022-08-19T08:22:55;20.90;1.00
41939;DHT22;23057;48.554;14.454;2022-08-19T08:25:44;21.20;1.00
41939;DHT22;23057;48.554;14.454;2022-08-19T08:28:18;21.20;99.90
41939;DHT22;23057;48.554;14.454;2022-08-19T08:30:49;20.90;99.90
41939;DHT22;23057;48.554;14.454;2022-08-19T08:33:23;20.80;99.90
41939;DHT22;23057;48.554;14.454;2022-08-19T08:35:57;21.00;99.90
41939;DHT22;23057;48.554;14.454;2022-08-19T08:38:28;21.00;99.90
41939;DHT22;23057;48.554;14.454;2022-08-19T08:41:01;21.20;1.00
41939;DHT22;23057;48.554;14.454;2022-08-19T08:43:52;21.30;99.90
41939;DHT22;23057;48.554;14.454;2022-08-19T08:49:40;21.20;99.90
41939;DHT22;23057;48.554;14.454;2022-08-19T08:52:05;21.10;1.00
41939;DHT22;23057;48.554;14.454;2022-08-19T08:54:54;21.10;99.90
41939;DHT22;23057;48.554;14.454;2022-08-19T09:00:24;20.50;99.90
41939;DHT22;23057;48.554;14.454;2022-08-19T09:02:59;21.00;99.90
41939;DHT22;23057;48.554;14.454;2022-08-19T09:05:48;21.60;99.90
41939;DHT22;23057;48.554;14.454;2022-08-19T09:15:06;20.70;1.00
41939;DHT22;23057;48.554;14.454;2022-08-19T09:17:40;20.70;99.90
41939;DHT22;23057;48.554;14.454;2022-08-19T09:20:19;21.00;99.90
41939;DHT22;23057;48.554;14.454;2022-08-19T09:22:52;21.40;99.90
41939;DHT22;23057;48.554;14.454;2022-08-19T09:25:23;21.60;99.90
41939;DHT22;23057;48.554;14.454;2022-08-19T09:27:55;21.70;99.90
41939;DHT22;23057;48.554;14.454;2022-08-19T09:30:28;22.70;35.30
41939;DHT22;23057;48.554;14.454;2022-08-19T09:33:03;22.90;99.90
41939;DHT22;23057;48.554;14.454;2022-08-19T09:35:35;23.20;99.90
41939;DHT22;23057;48.554;14.454;2022-08-19T09:38:06;22.70;99.90
41939;DHT22;23057;48.554;14.454;2022-08-19T09:40:37;22.00;99.90
41939;DHT22;23057;48.554;14.454;2022-08-19T09:43:09;21.90;99.90
41939;DHT22;23057;48.554;14.454;2022-08-19T09:45:40;22.30;1.00
41939;DHT22;23057;48.554;14.454;2022-08-19T09:48:11;22.70;99.90
41939;DHT22;23057;48.554;14.454;2022-08-19T09:50:42;22.80;99.90
41939;DHT22;23057;48.554;14.454;2022-08-19T09:53:12;23.10;99.90
41939;DHT22;23057;48.554;14.454;2022-08-19T09:55:43;23.60;43.70
41939;DHT22;23057;48.554;14.454;2022-08-19T09:58:14;23.20;99.90
41939;DHT22;23057;48.554;14.454;2022-08-19T10:00:45;24.20;99.90
41939;DHT22;23057;48.554;14.454;2022-08-19T10:03:16;25.00;1.00
41939;DHT22;23057;48.554;14.454;2022-08-19T10:05:47;25.10;1.00
41939;DHT22;23057;48.554;14.454;2022-08-19T10:08:20;25.20;1.00
41939;DHT22;23057;48.554;14.454;2022-08-19T10:11:02;24.40;1.00
41939;DHT22;23057;48.554;14.454;2022-08-19T10:13:34;24.10;1.00
41939;DHT22;23057;48.554;14.454;2022-08-19T10:16:07;24.60;1.00
41939;DHT22;23057;48.554;14.454;2022-08-19T10:18:41;25.20;1.00
41939;DHT22;23057;48.554;14.454;2022-08-19T10:21:16;25.40;1.00
41939;DHT22;23057;48.554;14.454;2022-08-19T10:23:52;25.70;1.00
41939;DHT22;23057;48.554;14.454;2022-08-19T10:26:30;25.90;99.90
41939;DHT22;23057;48.554;14.454;2022-08-19T10:29:07;26.00;99.90
41939;DHT22;23057;48.554;14.454;2022-08-19T10:31:38;25.70;99.90
41939;DHT22;23057;48.554;14.454;2022-08-19T10:34:09;25.80;99.90
41939;DHT22;23057;48.554;14.454;2022-08-19T10:36:39;26.40;99.90
41939;DHT22;23057;48.554;14.454;2022-08-19T10:39:10;26.20;99.90
41939;DHT22;23057;48.554;14.454;2022-08-19T10:41:42;26.50;99.90
41939;DHT22;23057;48.554;14.454;2022-08-19T10:44:14;26.70;99.90
41939;DHT22;23057;48.554;14.454;2022-08-19T10:46:47;26.50;99.90
41939;DHT22;23057;48.554;14.454;2022-08-19T10:49:18;26.40;99.90
41939;DHT22;23057;48.554;14.454;2022-08-19T10:51:54;26.60;99.90
41939;DHT22;23057;48.554;14.454;2022-08-19T10:54:45;26.60;99.90
41939;DHT22;23057;48.554;14.454;2022-08-19T10:57:34;27.10;99.90
41939;DHT22;23057;48.554;14.454;2022-08-19T11:00:05;27.70;99.90
41939;DHT22;23057;48.554;14.454;2022-08-19T11:02:37;27.80;99.90
41939;DHT22;23057;48.554;14.454;2022-08-19T11:05:08;27.90;99.90
41939;DHT22;23057;48.554;14.454;2022-08-19T11:07:42;27.80;99.90
41939;DHT22;23057;48.554;14.454;2022-08-19T11:10:14;28.10;99.90
41939;DHT22;23057;48.554;14.454;2022-08-19T11:12:49;27.90;99.90
41939;DHT22;23057;48.554;14.454;2022-08-19T11:15:24;27.90;99.90
41939;DHT22;23057;48.554;14.454;2022-08-19T11:17:55;28.30;99.90
41939;DHT22;23057;48.554;14.454;2022-08-19T11:20:26;27.80;99.90
41939;DHT22;23057;48.554;14.454;2022-08-19T11:22:56;28.20;99.90
41939;DHT22;23057;48.554;14.454;2022-08-19T11:25:27;27.60;99.90
41939;DHT22;23057;48.554;14.454;2022-08-19T11:27:58;27.60;99.90
41939;DHT22;23057;48.554;14.454;2022-08-19T11:30:29;28.10;99.90
41939;DHT22;23057;48.554;14.454;2022-08-19T11:32:59;28.70;99.90
41939;DHT22;23057;48.554;14.454;2022-08-19T11:35:31;28.70;99.90
41939;DHT22;23057;48.554;14.454;2022-08-19T11:38:02;28.30;99.90
41939;DHT22;23057;48.554;14.454;2022-08-19T11:40:34;27.00;99.90
41939;DHT22;23057;48.554;14.454;2022-08-19T11:43:04;25.80;99.90
41939;DHT22;23057;48.554;14.454;2022-08-19T11:45:36;25.10;1.00
41939;DHT22;23057;48.554;14.454;2022-08-19T11:48:07;24.60;1.00
41939;DHT22;23057;48.554;14.454;2022-08-19T11:50:37;24.30;1.00
41939;DHT22;23057;48.554;14.454;2022-08-19T11:53:10;24.30;1.00
41939;DHT22;23057;48.554;14.454;2022-08-19T11:55:41;24.40;1.00
41939;DHT22;23057;48.554;14.454;2022-08-19T11:58:13;24.40;1.00
41939;DHT22;23057;48.554;14.454;2022-08-19T12:00:46;24.60;1.00
41939;DHT22;23057;48.554;14.454;2022-08-19T12:03:17;24.80;1.00
41939;DHT22;23057;48.554;14.454;2022-08-19T12:05:49;24.90;1.00
41939;DHT22;23057;48.554;14.454;2022-08-19T12:08:20;24.90;1.00
41939;DHT22;23057;48.554;14.454;2022-08-19T12:10:51;24.70;1.00
41939;DHT22;23057;48.554;14.454;2022-08-19T12:13:22;25.20;1.00
41939;DHT22;23057;48.554;14.454;2022-08-19T12:15:53;25.20;1.00
41939;DHT22;23057;48.554;14.454;2022-08-19T12:18:24;25.20;1.00
41939;DHT22;23057;48.554;14.454;2022-08-19T12:20:55;25.20;1.00
41939;DHT22;23057;48.554;14.454;2022-08-19T12:23:26;24.90;1.00
41939;DHT22;23057;48.554;14.454;2022-08-19T12:25:57;24.60;1.00
41939;DHT22;23057;48.554;14.454;2022-08-19T12:28:28;24.60;1.00
41939;DHT22;23057;48.554;14.454;2022-08-19T12:30:59;24.90;1.00
41939;DHT22;23057;48.554;14.454;2022-08-19T12:33:29;25.30;1.00
41939;DHT22;23057;48.554;14.454;2022-08-19T12:36:03;25.60;1.00
41939;DHT22;23057;48.554;14.454;2022-08-19T12:38:38;26.00;1.00
41939;DHT22;23057;48.554;14.454;2022-08-19T12:41:11;26.40;1.00
41939;DHT22;23057;48.554;14.454;2022-08-19T12:43:45;26.90;99.90
41939;DHT22;23057;48.554;14.454;2022-08-19T12:46:19;27.30;99.90
41939;DHT22;23057;48.554;14.454;2022-08-19T12:48:50;26.80;99.90
41939;DHT22;23057;48.554;14.454;2022-08-19T12:51:22;26.10;99.90
41939;DHT22;23057;48.554;14.454;2022-08-19T12:53:53;25.90;99.90
41939;DHT22;23057;48.554;14.454;2022-08-19T12:56:24;26.00;99.90
41939;DHT22;23057;48.554;14.454;2022-08-19T12:58:55;26.20;99.90
41939;DHT22;23057;48.554;14.454;2022-08-19T13:01:26;25.90;99.90
41939;DHT22;23057;48.554;14.454;2022-08-19T13:03:58;25.90;99.90
41939;DHT22;23057;48.554;14.454;2022-08-19T13:06:30;25.80;99.90
41939;DHT22;23057;48.554;14.454;2022-08-19T13:09:00;25.90;99.90
41939;DHT22;23057;48.554;14.454;2022-08-19T13:11:31;26.00;99.90
41939;DHT22;23057;48.554;14.454;2022-08-19T13:14:04;25.90;99.90
41939;DHT22;23057;48.554;14.454;2022-08-19T13:16:35;26.00;99.90
41939;DHT22;23057;48.554;14.454;2022-08-19T13:19:06;25.90;99.90
41939;DHT22;23057;48.554;14.454;2022-08-19T13:21:37;26.00;99.90
41939;DHT22;23057;48.554;14.454;2022-08-19T13:24:08;26.30;99.90
41939;DHT22;23057;48.554;14.454;2022-08-19T13:26:41;26.30;99.90
41939;DHT22;23057;48.554;14.454;2022-08-19T13:29:12;26.30;99.90
41939;DHT22;23057;48.554;14.454;2022-08-19T13:32:01;26.20;99.90
41939;DHT22;23057;48.554;14.454;2022-08-19T13:34:51;26.60;99.90
41939;DHT22;23057;48.554;14.454;2022-08-19T13:37:22;26.60;99.90
41939;DHT22;23057;48.554;14.454;2022-08-19T13:40:18;26.80;99.90
41939;DHT22;23057;48.554;14.454;2022-08-19T13:42:54;26.80;99.90
41939;DHT22;23057;48.554;14.454;2022-08-19T13:45:26;26.80;99.90
41939;DHT22;23057;48.554;14.454;2022-08-19T13:47:59;26.80;99.90
41939;DHT22;23057;48.554;14.454;2022-08-19T13:50:41;26.70;99.90
41939;DHT22;23057;48.554;14.454;2022-08-19T13:53:14;27.00;99.90
41939;DHT22;23057;48.554;14.454;2022-08-19T13:55:46;27.00;99.90
41939;DHT22;23057;48.554;14.454;2022-08-19T13:58:17;27.00;99.90
41939;DHT22;23057;48.554;14.454;2022-08-19T14:00:48;27.10;99.90
41939;DHT22;23057;48.554;14.454;2022-08-19T14:03:19;27.40;99.90
41939;DHT22;23057;48.554;14.454;2022-08-19T14:05:50;27.30;99.90
41939;DHT22;23057;48.554;14.454;2022-08-19T14:08:21;27.00;99.90
41939;DHT22;23057;48.554;14.454;2022-08-19T14:10:52;27.40;99.90
41939;DHT22;23057;48.554;14.454;2022-08-19T14:13:24;27.80;99.90
41939;DHT22;23057;48.554;14.454;2022-08-19T14:15:55;27.90;99.90
41939;DHT22;23057;48.554;14.454;2022-08-19T14:18:28;27.50;99.90
41939;DHT22;23057;48.554;14.454;2022-08-19T14:20:59;27.10;99.90
41939;DHT22;23057;48.554;14.454;2022-08-19T14:23:30;27.00;99.90
41939;DHT22;23057;48.554;14.454;2022-08-19T14:26:03;26.70;99.90
41939;DHT22;23057;48.554;14.454;2022-08-19T14:28:42;26.40;99.90
41939;DHT22;23057;48.554;14.454;2022-08-19T14:31:15;26.70;99.90
41939;DHT22;23057;48.554;14.454;2022-08-19T14:33:49;27.00;99.90
41939;DHT22;23057;48.554;14.454;2022-08-19T14:36:20;27.30;99.90
41939;DHT22;23057;48.554;14.454;2022-08-19T14:38:51;27.20;99.90
41939;DHT22;23057;48.554;14.454;2022-08-19T14:41:23;27.20;99.90
41939;DHT22;23057;48.554;14.454;2022-08-19T14:43:54;27.10;99.90
41939;DHT22;23057;48.554;14.454;2022-08-19T14:46:26;26.80;99.90
41939;DHT22;23057;48.554;14.454;2022-08-19T14:48:58;27.10;99.90
41939;DHT22;23057;48.554;14.454;2022-08-19T14:51:29;27.10;99.90
41939;DHT22;23057;48.554;14.454;2022-08-19T14:54:00;27.30;99.90
41939;DHT22;23057;48.554;14.454;2022-08-19T14:56:31;27.10;99.90
41939;DHT22;23057;48.554;14.454;2022-08-19T14:59:02;27.20;99.90
41939;DHT22;23057;48.554;14.454;2022-08-19T15:01:33;27.40;99.90
41939;DHT22;23057;48.554;14.454;2022-08-19T15:04:04;27.10;99.90
41939;DHT22;23057;48.554;14.454;2022-08-19T15:06:35;27.10;99.90
41939;DHT22;23057;48.554;14.454;2022-08-19T15:09:07;26.80;99.90
41939;DHT22;23057;48.554;14.454;2022-08-19T15:11:38;26.90;99.90
41939;DHT22;23057;48.554;14.454;2022-08-19T15:14:09;26.80;99.90
41939;DHT22;23057;48.554;14.454;2022-08-19T15:16:40;27.10;99.90
41939;DHT22;23057;48.554;14.454;2022-08-19T15:19:12;27.10;99.90
41939;DHT22;23057;48.554;14.454;2022-08-19T15:21:43;27.30;99.90
41939;DHT22;23057;48.554;14.454;2022-08-19T15:24:14;27.30;99.90
41939;DHT22;23057;48.554;14.454;2022-08-19T15:26:45;26.70;99.90
41939;DHT22;23057;48.554;14.454;2022-08-19T15:29:16;26.50;99.90
41939;DHT22;23057;48.554;14.454;2022-08-19T15:31:47;26.10;99.90
41939;DHT22;23057;48.554;14.454;2022-08-19T15:34:18;26.00;99.90
41939;DHT22;23057;48.554;14.454;2022-08-19T15:36:49;26.10;99.90
41939;DHT22;23057;48.554;14.454;2022-08-19T15:39:20;26.00;99.90
41939;DHT22;23057;48.554;14.454;2022-08-19T15:41:51;26.10;99.90
41939;DHT22;23057;48.554;14.454;2022-08-19T15:44:22;26.10;99.90
41939;DHT22;23057;48.554;14.454;2022-08-19T15:46:53;26.10;99.90
41939;DHT22;23057;48.554;14.454;2022-08-19T15:49:24;26.10;99.90
41939;DHT22;23057;48.554;14.454;2022-08-19T15:51:55;26.30;99.90
41939;DHT22;23057;48.554;14.454;2022-08-19T15:54:27;26.30;99.90
41939;DHT22;23057;48.554;14.454;2022-08-19T15:56:58;26.40;99.90
41939;DHT22;23057;48.554;14.454;2022-08-19T15:59:48;26.30;99.90
41939;DHT22;23057;48.554;14.454;2022-08-19T16:02:37;25.90;99.90
41939;DHT22;23057;48.554;14.454;2022-08-19T16:05:26;25.50;99.90
41939;DHT22;23057;48.554;14.454;2022-08-19T16:08:15;25.30;99.90
41939;DHT22;23057;48.554;14.454;2022-08-19T16:10:46;25.20;99.90